CheckWX is a tool to help pilots better visualize weather data.  It is not intended as a substitute for an official pre-flight weather briefing.

23:11:06 UTC

KCVG TAF
Cincinnati / Northern Kentucky International Airport
Covington, Kentucky, USA
KCVG 312101Z 3121/0124 34008KT P6SM SCT020 OVC040 TEMPO 3121/0101 SCT015 OVC025 FM010100 01007KT P6SM BKN018 OVC030 FM011000 35008KT P6SM OVC015 TEMPO 0112/0116 SCT015 OVC025 FM011600 35008KT P6SM BKN030

Mar-31@
21:00 UTC

Mar-31 @ 21:00 UTC

Apr-1@
01:00 UTC

Apr-1 @ 01:00 UTC

TAF KCVG 312101Z 3121/0124 34008KT P6SM SCT020 OVC040
Wind
  • 340° at 8 KTS
Cloud Levels
  • Scattered at 2,000' AGL
  • Overcast at 4,000' AGL

Mar-31@
21:00 UTC

Mar-31 @ 21:00 UTC

Apr-1@
01:00 UTC

Apr-1 @ 01:00 UTC

TEMPO 3121/0101 SCT015 OVC025

Temporary

Temporary Changes expected for less than half the time period

Cloud Levels
  • Scattered at 1,500' AGL
  • Overcast at 2,500' AGL

Apr-1@
01:00 UTC

Apr-1 @ 01:00 UTC

Apr-1@
10:00 UTC

Apr-1 @ 10:00 UTC

FM010100 01007KT P6SM BKN018 OVC030

From

From Standard forecast or significant change

Wind
  • 010° at 7 KTS
Cloud Levels
  • Broken at 1,800' AGL
  • Overcast at 3,000' AGL

Apr-1@
10:00 UTC

Apr-1 @ 10:00 UTC

Apr-1@
16:00 UTC

Apr-1 @ 16:00 UTC

FM011000 35008KT P6SM OVC015

From

From Standard forecast or significant change

Wind
  • 350° at 8 KTS
Cloud Levels
  • Overcast at 1,500' AGL

Apr-1@
12:00 UTC

Apr-1 @ 12:00 UTC

Apr-1@
16:00 UTC

Apr-1 @ 16:00 UTC

TEMPO 0112/0116 SCT015 OVC025

Temporary

Temporary Changes expected for less than half the time period

Cloud Levels
  • Scattered at 1,500' AGL
  • Overcast at 2,500' AGL

Apr-1@
16:00 UTC

Apr-1 @ 16:00 UTC

Apr-2@
00:00 UTC

Apr-2 @ 00:00 UTC

FM011600 35008KT P6SM BKN030

From

From Standard forecast or significant change

Wind
  • 350° at 8 KTS
Cloud Levels
  • Broken at 3,000' AGL